Windsor, North Dakota
Current Conditions -  °F | °C
As of 1:56 AM on Thursday 23 Oct 2014 (Local Time) from KJMS Reporting Station
Clear Clear  
Wind Chill: 40°   Ceiling: Unl
Heat Index: 44°   Visibility: 10mi
Dew Point: 38°   Wind: 7mph
Humidity: 79%   Direction: 240°WSW
Pressure: 29.89"   Gusts: NA
Location:  46.8919°N, 99.0696°W
Report Text: KJMS 230656Z AUTO 24006KT 10SM CLR 07/03 A2989 RMK AO2 SLP127 T00670033
Loading
Personal Weather Stations






























Interactive Weather Map
Tropical Storm Tracking
New forecast layout! Learn more

10-Day Weather Forecast

Advertisements
Track Severe Weather on mobile